Time;durP1;ratioP1;P1;durP2;ratioP2;P2;SDS_P1;SDS_P2;PMS_P1;PMS_P2;Temp;Humidity;BMP_temperature;BMP_pressure;BME280_temperature;BME280_humidity;BME280_pressure;Samples;Min_cycle;Max_cycle;Signal;HPM_P1;HPM_P2
2024/02/10 00:01:48;;;;;;;7.70;2.42;;;;;;;7.12;69.32;90388.50;2067168;69;20165;-80
2024/02/10 00:04:17;;;;;;;4.82;2.88;;;;;;;6.77;69.62;90401.22;2065457;69;20160;-82
2024/02/10 00:06:45;;;;;;;5.40;2.72;;;;;;;6.75;70.42;90392.78;2064859;69;20607;-82
2024/02/10 00:09:13;;;;;;;6.22;2.97;;;;;;;6.93;69.69;90381.53;2065401;69;20588;-82
2024/02/10 00:11:38;;;;;;;5.80;2.80;;;;;;;7.08;69.44;90396.75;2065175;69;20160;-83
2024/02/10 00:14:05;;;;;;;4.18;2.08;;;;;;;7.03;69.13;90393.09;2064487;69;20160;-81
2024/02/10 00:16:33;;;;;;;5.00;2.90;;;;;;;6.91;70.48;90389.13;2065068;69;20401;-81
2024/02/10 00:19:11;;;;;;;6.15;3.10;;;;;;;6.51;70.57;90377.88;2064640;69;20148;-82
2024/02/10 00:21:37;;;;;;;6.50;2.63;;;;;;;6.70;70.50;90399.56;2065375;69;20145;-82
2024/02/10 00:24:04;;;;;;;6.78;2.90;;;;;;;6.58;71.04;90388.63;2065337;69;20141;-82
2024/02/10 00:26:31;;;;;;;8.07;2.97;;;;;;;6.65;70.15;90392.41;2064747;69;20136;-81
2024/02/10 00:28:57;;;;;;;5.93;3.00;;;;;;;6.42;71.50;90388.03;2065273;69;20155;-81
2024/02/10 00:31:23;;;;;;;7.00;2.88;;;;;;;6.82;70.61;90394.41;2065207;69;20164;-83
2024/02/10 00:33:52;;;;;;;4.40;1.95;;;;;;;6.98;69.97;90377.53;2065191;69;20145;-81
2024/02/10 00:36:18;;;;;;;5.45;2.58;;;;;;;6.50;70.82;90373.63;2065277;69;20171;-82
2024/02/10 00:38:47;;;;;;;4.78;2.40;;;;;;;6.84;69.72;90382.59;2065264;69;20160;-80
2024/02/10 00:41:13;;;;;;;5.63;2.42;;;;;;;6.89;69.72;90378.59;2064681;69;20208;-81
2024/02/10 00:43:43;;;;;;;5.45;2.38;;;;;;;6.98;68.88;90374.03;2065208;69;20153;-81
2024/02/10 00:46:15;;;;;;;4.45;2.53;;;;;;;6.84;68.55;90360.22;2065194;69;20203;-81
2024/02/10 00:48:41;;;;;;;5.22;2.38;;;;;;;6.53;70.02;90372.34;2065071;69;20137;-81
2024/02/10 00:51:08;;;;;;;6.00;2.50;;;;;;;6.58;70.37;90357.88;2065266;69;20184;-80
2024/02/10 00:53:39;;;;;;;4.47;2.40;;;;;;;6.32;71.32;90356.88;2065206;69;20331;-82
2024/02/10 00:56:08;;;;;;;4.00;2.35;;;;;;;6.41;72.00;90353.03;2064701;69;20169;-81
2024/02/10 00:58:33;;;;;;;4.13;2.60;;;;;;;6.50;71.16;90337.31;2064623;69;20589;-82
2024/02/10 01:00:59;;;;;;;3.10;2.20;;;;;;;6.70;70.28;90348.53;2065244;69;20618;-83
2024/02/10 01:03:25;;;;;;;5.30;2.22;;;;;;;6.09;71.82;90333.69;2064614;69;20153;-81
2024/02/10 01:05:50;;;;;;;4.38;2.28;;;;;;;6.58;70.84;90348.78;2064795;69;20149;-82
2024/02/10 01:08:17;;;;;;;7.00;2.50;;;;;;;6.55;70.99;90356.41;2064212;69;20624;-82
2024/02/10 01:10:42;;;;;;;4.30;2.47;;;;;;;6.30;71.36;90351.22;2064165;69;20148;-81
2024/02/10 01:13:09;;;;;;;6.00;2.00;;;;;;;6.58;70.85;90360.69;2065241;69;20666;-82
2024/02/10 01:15:34;;;;;;;8.52;2.40;;;;;;;6.54;70.42;90351.44;2065066;69;20153;-80
2024/02/10 01:18:04;;;;;;;3.70;2.33;;;;;;;6.48;70.30;90340.03;2065187;69;20616;-82
2024/02/10 01:20:30;;;;;;;3.63;2.40;;;;;;;6.56;70.02;90365.50;2065136;69;20505;-82
2024/02/10 01:22:59;;;;;;;3.20;2.05;;;;;;;6.51;70.25;90369.50;2065218;69;20155;-82
2024/02/10 01:25:25;;;;;;;3.17;2.10;;;;;;;6.42;70.38;90360.09;2064987;69;20239;-81
2024/02/10 01:27:51;;;;;;;2.78;1.77;;;;;;;6.40;70.06;90368.38;2064354;69;20540;-82
2024/02/10 01:30:20;;;;;;;4.28;2.10;;;;;;;6.29;70.29;90360.97;2065135;69;20137;-81
2024/02/10 01:32:46;;;;;;;5.22;1.90;;;;;;;6.09;70.17;90353.25;2064978;69;20161;-82
2024/02/10 01:35:12;;;;;;;3.10;2.17;;;;;;;5.80;71.28;90351.38;2064606;69;20145;-83
2024/02/10 01:37:40;;;;;;;4.10;2.20;;;;;;;6.21;71.38;90369.75;2065096;69;20152;-82
2024/02/10 01:40:11;;;;;;;4.75;1.95;;;;;;;6.22;71.12;90364.88;2064943;69;20189;-82
2024/02/10 01:42:37;;;;;;;4.47;2.42;;;;;;;5.33;74.06;90390.59;2065157;69;20149;-82
2024/02/10 01:45:08;;;;;;;4.75;2.08;;;;;;;5.73;74.14;90391.56;2065056;69;20151;-80
2024/02/10 01:47:39;;;;;;;3.50;1.90;;;;;;;6.08;72.89;90382.53;2064470;69;20160;-81
2024/02/10 01:50:06;;;;;;;2.88;1.52;;;;;;;6.29;71.97;90380.53;2065059;69;20161;-81
2024/02/10 01:52:39;;;;;;;3.65;1.60;;;;;;;5.74;73.67;90381.84;2065011;69;20227;-82
2024/02/10 01:55:05;;;;;;;3.22;1.38;;;;;;;6.14;72.12;90351.34;2065009;69;20157;-82
2024/02/10 01:57:32;;;;;;;3.33;1.30;;;;;;;6.24;71.22;90351.72;2065005;69;20148;-83
2024/02/10 02:00:01;;;;;;;3.75;1.60;;;;;;;5.96;72.72;90367.38;2065635;69;20188;-82
2024/02/10 02:02:30;;;;;;;5.03;1.70;;;;;;;6.15;71.97;90363.22;2065442;69;20149;-81
2024/02/10 02:05:06;;;;;;;3.33;1.73;;;;;;;6.37;71.10;90355.72;2064785;69;20151;-80
2024/02/10 02:07:32;;;;;;;2.55;1.48;;;;;;;6.46;70.73;90367.88;2065509;69;20156;-80
2024/02/10 02:09:59;;;;;;;2.80;1.60;;;;;;;6.36;71.10;90373.81;2065296;69;20156;-80
2024/02/10 02:12:25;;;;;;;3.15;1.60;;;;;;;6.39;70.69;90364.16;2065192;69;20152;-81
2024/02/10 02:14:50;;;;;;;2.97;1.40;;;;;;;6.21;71.11;90364.16;2065159;69;20540;-81
2024/02/10 02:17:17;;;;;;;2.78;1.40;;;;;;;5.94;73.22;90370.78;2064996;69;20139;-81
2024/02/10 02:19:43;;;;;;;1.73;1.33;;;;;;;6.22;71.37;90342.53;2064419;69;20213;-81
2024/02/10 02:22:09;;;;;;;4.18;1.48;;;;;;;6.45;70.65;90356.00;2064971;69;20273;-80
2024/02/10 02:24:35;;;;;;;2.15;1.30;;;;;;;6.42;70.63;90359.38;2064838;69;20577;-81
2024/02/10 02:27:02;;;;;;;4.35;1.60;;;;;;;6.07;72.11;90364.31;2065497;69;20597;-81
2024/02/10 02:29:28;;;;;;;3.42;1.50;;;;;;;6.27;71.05;90355.28;2065574;69;20141;-82
2024/02/10 02:31:58;;;;;;;3.05;1.40;;;;;;;6.16;70.92;90351.41;2065553;69;20192;-81
2024/02/10 02:34:25;;;;;;;2.13;1.45;;;;;;;6.06;71.88;90351.72;2065174;69;20195;-81
2024/02/10 02:36:52;;;;;;;3.67;1.63;;;;;;;5.98;72.10;90354.19;2065450;69;20141;-80
2024/02/10 02:39:19;;;;;;;2.67;1.65;;;;;;;6.15;71.98;90366.03;2065483;69;20624;-81
2024/02/10 02:41:45;;;;;;;3.60;1.40;;;;;;;6.26;71.53;90353.88;2065389;69;20596;-80
2024/02/10 02:44:14;;;;;;;3.78;1.33;;;;;;;6.41;70.57;90355.13;2064693;69;20168;-81
2024/02/10 02:46:44;;;;;;;2.22;1.20;;;;;;;6.41;70.45;90341.16;2065377;69;20149;-82
2024/02/10 02:49:14;;;;;;;2.97;1.58;;;;;;;5.83;71.83;90355.69;2064185;69;20222;-81
2024/02/10 02:51:40;;;;;;;2.97;1.40;;;;;;;6.09;71.08;90347.66;2065580;69;20141;-82
2024/02/10 02:54:06;;;;;;;4.80;1.70;;;;;;;6.18;70.61;90329.13;2065451;69;20184;-81
2024/02/10 02:56:32;;;;;;;3.47;1.35;;;;;;;6.30;70.12;90340.06;2065534;69;20148;-82
2024/02/10 02:58:58;;;;;;;2.47;1.52;;;;;;;5.55;73.49;90357.34;2064899;69;20141;-82
2024/02/10 03:01:24;;;;;;;2.33;1.40;;;;;;;5.89;72.76;90346.81;2061905;69;20160;-81
2024/02/10 03:03:50;;;;;;;3.08;1.60;;;;;;;6.10;71.66;90340.72;2065402;69;20165;-81
2024/02/10 03:06:19;;;;;;;4.32;1.50;;;;;;;5.55;72.93;90337.81;2064522;69;20153;-80
2024/02/10 03:08:46;;;;;;;2.97;1.40;;;;;;;5.57;74.03;90338.59;2065310;69;20156;-81
2024/02/10 03:11:19;;;;;;;2.47;1.45;;;;;;;5.93;72.43;90333.06;2064831;69;20203;-81
2024/02/10 03:13:47;;;;;;;2.60;1.55;;;;;;;6.09;71.49;90332.97;2065510;69;20152;-81
2024/02/10 03:16:14;;;;;;;2.17;1.33;;;;;;;6.04;71.29;90334.88;2065148;69;20672;-79
2024/02/10 03:18:41;;;;;;;2.42;1.40;;;;;;;6.07;71.25;90316.84;2064996;69;20140;-80
2024/02/10 03:21:09;;;;;;;5.88;1.42;;;;;;;5.98;71.67;90325.56;2064912;69;20153;-80
2024/02/10 03:23:34;;;;;;;1.95;1.27;;;;;;;5.82;71.52;90322.81;2065325;69;20169;-80
2024/02/10 03:26:03;;;;;;;2.78;1.50;;;;;;;5.90;71.44;90323.13;2065475;69;20157;-80
2024/02/10 03:28:29;;;;;;;2.47;1.45;;;;;;;5.77;71.71;90310.03;2064778;69;20184;-79
2024/02/10 03:30:55;;;;;;;1.83;1.27;;;;;;;5.95;71.39;90324.75;2061997;69;20218;-80
2024/02/10 03:33:20;;;;;;;2.55;1.23;;;;;;;5.52;72.98;90333.47;2065217;69;20246;-81
2024/02/10 03:35:47;;;;;;;3.03;1.38;;;;;;;5.77;72.21;90326.78;2064940;69;20167;-79
2024/02/10 03:38:13;;;;;;;3.00;1.27;;;;;;;5.84;71.35;90312.44;2064747;69;20239;-80
2024/02/10 03:40:39;;;;;;;4.25;1.23;;;;;;;5.33;73.22;90315.28;2065184;69;20680;-82
2024/02/10 03:43:05;;;;;;;1.70;1.20;;;;;;;5.59;72.13;90310.06;2065508;69;20171;-81
2024/02/10 03:45:33;;;;;;;2.00;1.30;;;;;;;5.65;71.15;90315.88;2065361;69;20524;-81
2024/02/10 03:48:03;;;;;;;3.20;1.50;;;;;;;5.65;71.32;90313.09;2065224;69;20148;-81
2024/02/10 03:50:29;;;;;;;3.70;1.30;;;;;;;5.61;71.54;90324.78;2065386;69;20145;-81
2024/02/10 03:52:57;;;;;;;3.40;1.55;;;;;;;5.49;72.39;90323.56;2064539;69;20172;-81
2024/02/10 03:55:29;;;;;;;3.28;1.20;;;;;;;5.51;72.22;90302.06;2064363;69;20153;-81
2024/02/10 03:57:59;;;;;;;2.08;1.40;;;;;;;5.01;73.60;90323.72;2065276;69;20528;-80
2024/02/10 04:00:26;;;;;;;7.50;1.23;;;;;;;5.12;73.62;90324.16;2065188;69;20210;-80
2024/02/10 04:02:52;;;;;;;3.05;1.60;;;;;;;5.44;72.20;90330.34;2064692;69;20157;-81
2024/02/10 04:05:19;;;;;;;2.40;1.38;;;;;;;5.50;72.05;90334.13;2064610;69;20148;-80
2024/02/10 04:07:52;;;;;;;3.40;1.40;;;;;;;4.85;74.25;90351.59;2062062;69;20195;-80
2024/02/10 04:10:21;;;;;;;3.85;1.70;;;;;;;5.17;73.83;90353.63;2064830;69;20596;-80
2024/02/10 04:12:47;;;;;;;3.08;1.30;;;;;;;5.22;72.78;90314.16;2064790;69;20781;-81
2024/02/10 04:15:13;;;;;;;3.15;1.40;;;;;;;5.22;72.89;90346.88;2065435;69;20157;-81
2024/02/10 04:17:39;;;;;;;2.97;1.33;;;;;;;5.08;73.97;90344.22;2065215;69;20141;-81
2024/02/10 04:20:09;;;;;;;3.45;1.50;;;;;;;5.43;72.84;90343.59;2065350;69;20588;-82
2024/02/10 04:22:42;;;;;;;1.67;1.20;;;;;;;5.53;72.24;90337.69;2065505;69;20190;-80
2024/02/10 04:25:12;;;;;;;;;;;;;;;5.40;72.89;90342.06;2065513;69;20240;-82
2024/02/10 04:27:38;;;;;;;2.75;1.55;;;;;;;5.03;73.76;90314.72;2065317;69;20102;-80
2024/02/10 04:30:04;;;;;;;3.75;1.70;;;;;;;5.42;72.47;90339.38;2064959;69;20137;-80
2024/02/10 04:32:31;;;;;;;2.47;1.60;;;;;;;5.55;71.95;90338.50;2065177;69;20661;-81
2024/02/10 04:34:57;;;;;;;2.65;1.58;;;;;;;5.39;72.07;90329.47;2065266;69;20148;-81
2024/02/10 04:37:22;;;;;;;2.65;1.70;;;;;;;5.50;71.35;90322.25;2065430;69;20609;-81
2024/02/10 04:39:48;;;;;;;3.22;1.50;;;;;;;5.44;71.35;90319.19;2065320;69;20214;-80
2024/02/10 04:42:15;;;;;;;3.13;1.80;;;;;;;5.48;71.63;90324.94;2065471;69;20164;-81
2024/02/10 04:44:40;;;;;;;8.90;4.30;;;;;;;5.42;71.69;90308.69;2064693;69;20144;-82
2024/02/10 04:47:06;;;;;;;24.63;12.38;;;;;;;5.37;71.47;90318.25;2065275;69;20149;-82
2024/02/10 04:49:36;;;;;;;33.58;15.88;;;;;;;5.34;71.71;90317.41;2065192;69;20149;-82
2024/02/10 04:52:02;;;;;;;48.05;23.45;;;;;;;5.35;71.48;90307.69;2065349;69;20148;-80
2024/02/10 04:54:28;;;;;;;43.40;23.38;;;;;;;5.45;71.26;90303.88;2064595;69;20746;-81
2024/02/10 04:56:54;;;;;;;27.52;13.13;;;;;;;5.17;72.58;90311.81;2065486;69;20188;-81
2024/02/10 04:59:26;;;;;;;17.13;8.80;;;;;;;5.09;72.54;90293.41;2064644;69;20141;-81
2024/02/10 05:01:55;;;;;;;12.77;6.25;;;;;;;5.16;72.11;90293.63;2065389;69;20179;-82
2024/02/10 05:04:22;;;;;;;19.13;8.88;;;;;;;4.83;73.50;90297.84;2065074;69;20180;-81
2024/02/10 05:06:48;;;;;;;15.68;8.38;;;;;;;4.83;73.21;90258.84;2065151;69;20144;-82
2024/02/10 05:09:14;;;;;;;19.73;8.95;;;;;;;5.04;72.22;90277.09;2065171;69;20151;-81
2024/02/10 05:11:41;;;;;;;20.95;11.98;;;;;;;5.26;71.91;90294.78;2065211;69;20164;-80
2024/02/10 05:14:12;;;;;;;19.95;11.52;;;;;;;5.28;71.16;90289.28;2064704;69;20215;-82
2024/02/10 05:16:38;;;;;;;18.60;9.32;;;;;;;4.78;73.86;90296.25;2065054;69;20161;-82
2024/02/10 05:19:04;;;;;;;16.98;9.20;;;;;;;4.89;73.23;90306.47;2064856;69;20629;-82
2024/02/10 05:21:32;;;;;;;20.17;8.60;;;;;;;5.07;72.40;90301.66;2064483;69;20588;-81
2024/02/10 05:24:14;;;;;;;18.63;9.55;;;;;;;4.47;74.40;90297.72;2064898;69;20147;-81
2024/02/10 05:26:42;;;;;;;14.18;8.43;;;;;;;4.58;74.95;90290.50;2064954;69;20145;-81
2024/02/10 05:29:10;;;;;;;12.40;7.57;;;;;;;4.79;73.50;90278.16;2064968;69;20183;-81
2024/02/10 05:31:39;;;;;;;11.18;5.05;;;;;;;4.79;73.60;90280.97;2065253;69;20153;-81
2024/02/10 05:34:06;;;;;;;11.98;7.35;;;;;;;4.95;72.92;90275.34;2065272;69;20273;-80
2024/02/10 05:36:34;;;;;;;9.48;5.20;;;;;;;4.69;74.27;90286.81;2065455;69;20232;-81
2024/02/10 05:39:08;;;;;;;10.98;5.53;;;;;;;4.51;74.98;90286.03;2065570;69;20148;-81
2024/02/10 05:41:34;;;;;;;15.13;8.18;;;;;;;4.72;73.84;90256.94;2065415;69;20161;-81
2024/02/10 05:44:00;;;;;;;7.45;2.67;;;;;;;4.78;73.26;90271.88;2065007;69;20148;-81
2024/02/10 05:46:28;;;;;;;11.98;6.65;;;;;;;4.44;75.45;90287.09;2065482;69;20160;-82
2024/02/10 05:48:54;;;;;;;11.43;5.07;;;;;;;4.73;74.36;90273.06;2065363;69;20156;-80
2024/02/10 05:51:23;;;;;;;6.47;4.00;;;;;;;4.77;73.99;90256.50;2065732;69;20214;-82
2024/02/10 05:53:49;;;;;;;9.48;5.80;;;;;;;4.47;74.92;90271.91;2065801;69;20145;-82
2024/02/10 05:56:16;;;;;;;6.05;3.28;;;;;;;4.70;74.92;90277.09;2065602;69;20141;-82
2024/02/10 05:58:44;;;;;;;7.28;3.75;;;;;;;4.90;73.74;90262.59;2065664;69;20145;-81
2024/02/10 06:01:19;;;;;;;6.70;3.55;;;;;;;5.08;72.93;90275.22;2065572;69;20140;-81
2024/02/10 06:03:45;;;;;;;7.55;3.50;;;;;;;4.75;73.95;90280.78;2065069;69;20614;-82
2024/02/10 06:06:10;;;;;;;9.02;3.53;;;;;;;4.96;73.03;90276.78;2065564;69;20145;-81
2024/02/10 06:08:36;;;;;;;7.45;3.65;;;;;;;4.75;73.65;90294.72;2065618;69;20501;-81
2024/02/10 06:11:03;;;;;;;7.63;3.65;;;;;;;4.83;72.82;90283.91;2065781;69;20144;-80
2024/02/10 06:13:32;;;;;;;6.95;3.47;;;;;;;4.96;72.83;90291.44;2065676;69;20180;-81
2024/02/10 06:15:58;;;;;;;6.40;3.20;;;;;;;4.83;72.09;90286.72;2065630;69;20244;-81
2024/02/10 06:18:33;;;;;;;6.55;3.55;;;;;;;4.57;72.96;90283.50;2065638;69;20151;-81
2024/02/10 06:20:59;;;;;;;7.35;3.38;;;;;;;4.71;73.36;90275.75;2065921;69;20344;-81
2024/02/10 06:23:30;;;;;;;6.07;3.63;;;;;;;4.82;73.17;90277.63;2065612;69;20176;-81
2024/02/10 06:25:56;;;;;;;5.65;3.30;;;;;;;4.38;74.04;90275.69;2065467;69;20153;-81
2024/02/10 06:28:22;;;;;;;8.75;4.40;;;;;;;4.17;75.39;90266.47;2065429;69;20609;-79
2024/02/10 06:30:49;;;;;;;10.20;4.50;;;;;;;4.61;74.35;90278.09;2065417;69;20207;-80
2024/02/10 06:33:28;;;;;;;8.00;5.20;;;;;;;4.78;73.73;90280.25;2065231;69;20230;-80
2024/02/10 06:35:58;;;;;;;8.35;4.63;;;;;;;4.71;72.96;90281.31;2065435;69;20918;-80
2024/02/10 06:38:32;;;;;;;9.32;4.70;;;;;;;4.37;74.46;90277.06;2065363;69;20588;-80
2024/02/10 06:41:02;;;;;;;6.80;4.50;;;;;;;4.75;73.93;90267.56;2065281;69;20169;-80
2024/02/10 06:43:28;;;;;;;11.40;5.35;;;;;;;4.88;73.46;90270.88;2065342;69;20149;-79
2024/02/10 06:46:00;;;;;;;13.40;5.72;;;;;;;4.86;72.96;90263.16;2065430;69;20141;-79
2024/02/10 06:48:26;;;;;;;9.25;4.93;;;;;;;4.99;73.11;90267.84;2065297;69;20149;-79
2024/02/10 06:50:54;;;;;;;6.60;4.10;;;;;;;4.99;72.75;90270.66;2065415;69;20660;-79
2024/02/10 06:53:20;;;;;;;12.70;6.65;;;;;;;4.49;75.16;90269.97;2065323;69;20619;-79
2024/02/10 06:55:50;;;;;;;14.30;9.43;;;;;;;4.85;74.35;90272.84;2065276;69;20161;-78
2024/02/10 06:58:21;;;;;;;14.02;8.45;;;;;;;5.08;72.50;90275.22;2065465;69;20160;-80
2024/02/10 07:00:47;;;;;;;14.85;7.80;;;;;;;4.91;73.84;90275.19;2064823;69;20153;-80
2024/02/10 07:03:17;;;;;;;16.25;9.15;;;;;;;5.08;73.09;90266.84;2064520;69;20149;-81
2024/02/10 07:05:45;;;;;;;9.85;5.15;;;;;;;5.22;72.75;90257.63;2065557;69;20140;-81
2024/02/10 07:08:14;;;;;;;52.90;22.60;;;;;;;4.61;75.16;90266.97;2065311;69;20649;-80
2024/02/10 07:10:44;;;;;;;58.97;26.35;;;;;;;5.00;74.33;90263.03;2064693;69;20141;-80
2024/02/10 07:13:10;;;;;;;54.85;24.05;;;;;;;5.13;73.61;90261.44;2064624;69;20176;-79
2024/02/10 07:15:36;;;;;;;52.83;23.45;;;;;;;5.29;72.98;90271.19;2065088;69;20150;-79
2024/02/10 07:18:02;;;;;;;43.03;19.48;;;;;;;5.30;72.66;90258.66;2065210;69;20237;-80
2024/02/10 07:20:30;;;;;;;39.38;18.60;;;;;;;5.45;72.56;90275.97;2064753;69;20153;-79
2024/02/10 07:23:02;;;;;;;38.17;18.25;;;;;;;5.54;71.75;90286.84;2065336;69;20137;-79
2024/02/10 07:25:33;;;;;;;16.00;8.10;;;;;;;5.12;73.21;90282.31;2065223;69;20211;-79
2024/02/10 07:28:03;;;;;;;19.67;9.90;;;;;;;5.37;72.69;90276.38;2064786;69;20222;-80
2024/02/10 07:30:30;;;;;;;19.05;10.48;;;;;;;5.51;72.33;90276.97;2062223;69;20136;-80
2024/02/10 07:33:03;;;;;;;17.85;9.18;;;;;;;5.35;72.86;90282.59;2061898;69;20211;-79
2024/02/10 07:35:32;;;;;;;87.65;38.40;;;;;;;5.71;72.06;90301.44;2062215;69;20138;-80
2024/02/10 07:37:58;;;;;;;45.97;21.50;;;;;;;5.88;71.45;90297.94;2062201;69;20145;-80
2024/02/10 07:40:24;;;;;;;16.65;9.20;;;;;;;5.46;72.79;90294.19;2062048;69;20180;-80
2024/02/10 07:42:52;;;;;;;32.97;17.95;;;;;;;5.38;72.89;90291.06;2061944;69;20594;-81
2024/02/10 07:45:18;;;;;;;45.38;22.08;;;;;;;5.37;73.93;90303.56;2061915;69;20557;-85
2024/02/10 07:47:47;;;;;;;42.03;20.35;;;;;;;5.68;72.70;90300.66;2061906;69;20156;-80
2024/02/10 07:50:13;;;;;;;45.25;24.38;;;;;;;5.81;72.24;90299.75;2061533;69;20231;-80
2024/02/10 07:52:42;;;;;;;42.08;21.50;;;;;;;5.74;72.36;90303.69;2062131;69;20176;-80
2024/02/10 07:55:12;;;;;;;37.92;18.77;;;;;;;5.78;72.06;90298.25;2061881;69;20549;-79
2024/02/10 07:57:41;;;;;;;35.25;16.38;;;;;;;6.04;71.60;90286.69;2062185;69;20180;-80
2024/02/10 08:00:10;;;;;;;22.00;10.82;;;;;;;5.93;71.01;90291.16;2062110;69;20137;-80
2024/02/10 08:02:37;;;;;;;37.88;16.88;;;;;;;5.77;72.60;90296.81;2062043;69;20141;-80
2024/02/10 08:05:04;;;;;;;31.80;14.70;;;;;;;6.00;72.20;90283.72;2061405;69;20133;-78
2024/02/10 08:07:30;;;;;;;21.77;11.65;;;;;;;6.06;71.68;90270.72;2062006;69;20156;-79
2024/02/10 08:09:57;;;;;;;37.35;16.95;;;;;;;5.48;73.59;90285.88;2061512;69;20165;-79
2024/02/10 08:12:23;;;;;;;60.75;26.70;;;;;;;5.73;73.15;90277.13;2062048;69;20141;-80
2024/02/10 08:14:50;;;;;;;68.25;29.35;;;;;;;6.20;71.96;90267.75;2061951;69;20219;-79
2024/02/10 08:17:17;;;;;;;64.38;28.75;;;;;;;5.67;73.58;90282.44;2062033;69;20172;-79
2024/02/10 08:19:42;;;;;;;76.03;33.70;;;;;;;5.92;72.93;90280.66;2061444;69;20210;-79
2024/02/10 08:22:11;;;;;;;119.57;47.75;;;;;;;6.27;72.24;90265.91;2062122;69;20137;-80
2024/02/10 08:24:38;;;;;;;67.55;29.92;;;;;;;6.21;71.88;90276.84;2061966;69;20184;-80
2024/02/10 08:27:08;;;;;;;71.13;33.25;;;;;;;6.25;72.17;90282.59;2062109;69;20497;-81
2024/02/10 08:29:34;;;;;;;65.15;29.52;;;;;;;6.58;71.64;90268.44;2062032;69;20165;-79
2024/02/10 08:32:05;;;;;;;46.75;20.33;;;;;;;6.90;70.45;90273.75;2062125;69;20145;-79
2024/02/10 08:34:35;;;;;;;30.27;14.10;;;;;;;7.14;69.90;90276.66;2061958;69;20589;-79
2024/02/10 08:37:04;;;;;;;30.90;15.73;;;;;;;6.77;70.13;90274.69;2061525;69;20605;-79
2024/02/10 08:39:31;;;;;;;28.92;15.77;;;;;;;6.57;71.08;90283.06;2062299;69;20211;-79
2024/02/10 08:42:00;;;;;;;28.60;15.63;;;;;;;7.14;70.52;90276.66;2062031;69;20184;-79
2024/02/10 08:44:27;;;;;;;38.38;19.55;;;;;;;7.14;70.20;90288.56;2061478;69;20153;-81
2024/02/10 08:46:53;;;;;;;25.95;15.02;;;;;;;7.37;68.79;90261.34;2062004;69;20149;-80
2024/02/10 08:49:19;;;;;;;24.95;13.00;;;;;;;7.61;68.97;90269.84;2061946;69;20180;-80
2024/02/10 08:51:49;;;;;;;26.08;13.80;;;;;;;7.07;70.63;90275.75;2062178;69;20212;-80
2024/02/10 08:54:18;;;;;;;32.10;15.80;;;;;;;7.44;69.61;90268.59;2062152;69;20200;-80
2024/02/10 08:56:44;;;;;;;30.98;15.93;;;;;;;7.89;68.62;90284.03;2062291;69;20153;-80
2024/02/10 08:59:12;;;;;;;35.63;17.20;;;;;;;7.97;68.66;90269.53;2058840;69;20576;-80
2024/02/10 09:01:42;;;;;;;28.17;14.27;;;;;;;8.02;67.98;90285.84;2062062;69;20597;-81
2024/02/10 09:04:11;;;;;;;21.90;11.82;;;;;;;8.45;68.14;90273.13;2061854;69;20203;-80
2024/02/10 09:06:37;;;;;;;20.35;10.45;;;;;;;8.75;67.28;90273.31;2061958;69;20173;-81
2024/02/10 09:09:04;;;;;;;13.70;7.63;;;;;;;8.64;64.70;90286.31;2062082;69;20139;-79
2024/02/10 09:11:39;;;;;;;31.05;14.35;;;;;;;8.17;67.47;90277.88;2061901;69;20609;-81
2024/02/10 09:14:07;;;;;;;26.33;12.35;;;;;;;8.77;67.46;90287.38;2061951;69;20165;-80
2024/02/10 09:16:32;;;;;;;22.60;10.45;;;;;;;9.13;65.75;90256.09;2061896;69;20200;-81
2024/02/10 09:19:01;;;;;;;68.18;29.27;;;;;;;9.27;64.55;90281.75;2061915;69;20591;-82
2024/02/10 09:21:28;;;;;;;85.32;34.97;;;;;;;9.74;64.63;90290.66;2061951;69;20156;-82
2024/02/10 09:23:53;;;;;;;67.38;27.05;;;;;;;10.09;64.47;90270.44;2061943;69;20145;-80
2024/02/10 09:26:20;;;;;;;36.60;16.92;;;;;;;10.27;62.98;90275.81;2061960;69;20168;-81
2024/02/10 09:28:46;;;;;;;36.17;18.35;;;;;;;10.67;62.66;90256.31;2062070;69;20161;-83
2024/02/10 09:31:15;;;;;;;42.75;19.92;;;;;;;10.92;60.96;90257.50;2062164;69;20297;-82
2024/02/10 09:33:43;;;;;;;28.42;14.13;;;;;;;10.45;59.63;90252.28;2061972;69;20149;-83
2024/02/10 09:36:12;;;;;;;33.78;13.27;;;;;;;10.85;60.92;90252.41;2061924;69;20232;-81
2024/02/10 09:38:42;;;;;;;30.10;13.80;;;;;;;11.04;59.48;90251.41;2062026;69;20191;-81
2024/02/10 09:41:11;;;;;;;33.22;13.25;;;;;;;11.10;59.32;90239.56;2061965;69;20520;-81
2024/02/10 09:43:39;;;;;;;28.98;11.88;;;;;;;11.49;58.63;90243.09;2061411;69;20177;-81
2024/02/10 09:46:07;;;;;;;22.58;9.88;;;;;;;11.90;56.70;90233.97;2061912;69;20276;-81
2024/02/10 09:48:48;;;;;;;19.55;9.52;;;;;;;12.38;57.53;90227.66;2061785;69;20147;-81
2024/02/10 09:51:15;;;;;;;18.48;9.18;;;;;;;12.60;56.67;90218.06;2061889;69;20187;-79
2024/02/10 09:53:41;;;;;;;14.38;6.18;;;;;;;12.26;53.41;90207.03;2061909;69;20222;-81
2024/02/10 09:56:13;;;;;;;17.00;7.28;;;;;;;11.59;55.94;90213.00;2061962;69;20149;-78
2024/02/10 09:58:47;;;;;;;16.20;6.30;;;;;;;12.59;57.01;90196.91;2061953;69;20149;-80
2024/02/10 10:01:15;;;;;;;24.65;10.32;;;;;;;13.26;54.62;90199.88;2061990;69;20184;-81
2024/02/10 10:03:41;;;;;;;21.42;10.32;;;;;;;13.48;53.73;90181.03;2061830;69;20155;-80
2024/02/10 10:06:11;;;;;;;10.32;4.13;;;;;;;13.06;50.98;90166.44;2061943;69;20145;-82
2024/02/10 10:08:39;;;;;;;2.97;1.80;;;;;;;12.71;52.13;90166.03;2061392;69;20545;-81
2024/02/10 10:11:11;;;;;;;4.25;2.08;;;;;;;13.62;51.04;90151.47;2061971;69;20168;-80
2024/02/10 10:13:40;;;;;;;5.15;1.60;;;;;;;13.69;49.20;90153.66;2061951;69;20153;-80
2024/02/10 10:16:10;;;;;;;4.93;2.42;;;;;;;14.38;49.96;90124.44;2062131;69;20174;-80
2024/02/10 10:18:37;;;;;;;4.90;2.00;;;;;;;14.77;49.93;90127.50;2069563;69;20181;-82
2024/02/10 10:21:06;;;;;;;1.92;1.23;;;;;;;15.20;47.89;90148.19;2064587;69;20240;-79
2024/02/10 10:23:35;;;;;;;4.32;2.38;;;;;;;15.05;47.90;90126.91;2062480;69;20229;-80
2024/02/10 10:26:03;;;;;;;4.57;1.77;;;;;;;15.33;47.88;90137.59;2061878;69;20196;-81
2024/02/10 10:28:33;;;;;;;3.58;1.70;;;;;;;15.85;45.79;90128.50;2062414;69;20168;-80
2024/02/10 10:30:59;;;;;;;4.28;1.60;;;;;;;15.39;47.17;90123.44;2062040;69;20502;-78
2024/02/10 10:33:27;;;;;;;3.10;1.40;;;;;;;15.50;46.84;90113.56;2062528;69;20621;-80
2024/02/10 10:35:54;;;;;;;1.95;1.55;;;;;;;15.44;46.60;90114.25;2062450;69;20145;-83
2024/02/10 10:38:23;;;;;;;5.65;1.67;;;;;;;16.92;45.46;90109.19;2062064;69;20160;-78
2024/02/10 10:40:53;;;;;;;2.60;1.60;;;;;;;16.95;44.41;90124.78;2062484;69;20125;-79
2024/02/10 10:43:25;;;;;;;3.30;1.58;;;;;;;17.00;44.12;90115.56;2062657;69;20154;-78
2024/02/10 10:45:52;;;;;;;2.17;1.30;;;;;;;17.07;43.62;90092.78;2062745;69;20145;-78
2024/02/10 10:48:17;;;;;;;2.83;1.80;;;;;;;16.42;44.12;90102.19;2062562;69;20198;-78
2024/02/10 10:50:43;;;;;;;4.50;2.28;;;;;;;16.94;44.36;90097.81;2062720;69;20521;-81
2024/02/10 10:53:09;;;;;;;5.57;1.55;;;;;;;16.49;43.37;90095.81;2059371;69;20228;-81
2024/02/10 10:55:50;;;;;;;3.63;1.85;;;;;;;16.57;43.47;90102.88;2062814;69;20623;-80
2024/02/10 10:58:32;;;;;;;4.60;2.00;;;;;;;16.46;43.09;90088.72;2062685;69;20173;-79
2024/02/10 11:00:59;;;;;;;6.32;2.10;;;;;;;16.28;43.45;90100.09;2064116;69;20148;-79
2024/02/10 11:03:25;;;;;;;3.92;1.95;;;;;;;16.75;43.26;90080.13;2065227;69;20631;-79
2024/02/10 11:05:51;;;;;;;2.13;1.75;;;;;;;16.97;42.14;90096.38;2065292;69;20157;-79
2024/02/10 11:08:25;;;;;;;3.60;1.90;;;;;;;17.48;41.64;90088.28;2067146;69;20141;-79
2024/02/10 11:11:00;;;;;;;5.20;2.40;;;;;;;17.74;41.31;90090.28;2067045;69;20149;-80
2024/02/10 11:13:28;;;;;;;3.50;2.00;;;;;;;17.37;41.12;90089.09;2064754;69;20184;-80
2024/02/10 11:16:15;;;;;;;6.90;2.85;;;;;;;17.91;41.53;90079.47;2062682;69;20145;-79
2024/02/10 11:18:44;;;;;;;5.63;2.00;;;;;;;17.95;40.67;90067.34;2062445;69;20149;-81
2024/02/10 11:21:30;;;;;;;6.03;2.03;;;;;;;17.88;40.69;90072.41;2062362;69;20141;-79
2024/02/10 11:24:14;;;;;;;4.63;1.88;;;;;;;17.82;40.55;90075.28;2062330;69;20165;-79
2024/02/10 11:26:48;;;;;;;4.10;2.10;;;;;;;18.56;40.50;90071.81;2062357;69;20605;-79
2024/02/10 11:29:18;;;;;;;4.30;1.63;;;;;;;18.28;41.11;90045.03;2062238;69;20161;-79
2024/02/10 11:31:45;;;;;;;2.30;1.45;;;;;;;18.17;40.81;90058.63;2062527;69;20193;-79
2024/02/10 11:34:16;;;;;;;2.63;1.48;;;;;;;17.91;40.67;90061.69;2062165;69;20149;-79
2024/02/10 11:36:54;;;;;;;1.73;1.33;;;;;;;18.25;39.63;90057.84;2061671;69;20609;-79
2024/02/10 11:39:22;;;;;;;2.78;1.30;;;;;;;18.29;40.52;90055.69;2062151;69;20589;-79